Time;durP1;ratioP1;P1;durP2;ratioP2;P2;SDS_P1;SDS_P2;PMS_P1;PMS_P2;Temp;Humidity;BMP_temperature;BMP_pressure;BME280_temperature;BME280_humidity;BME280_pressure;Samples;Min_cycle;Max_cycle;Signal;HPM_P1;HPM_P2
2023/07/23 00:00:28;;;;;;;1999.90;999.90;;;16.50;98.90;;;;;;5075863;28;20113;-74
2023/07/23 00:02:54;;;;;;;1999.90;999.90;;;16.50;99.20;;;;;;5091925;28;20040;-74
2023/07/23 00:05:21;;;;;;;1999.90;999.90;;;16.40;99.30;;;;;;5096255;28;20033;-74
2023/07/23 00:07:47;;;;;;;1999.90;999.90;;;16.30;99.60;;;;;;5094754;28;20485;-74
2023/07/23 00:10:12;;;;;;;1999.90;999.90;;;16.30;99.40;;;;;;5096080;28;20044;-75
2023/07/23 00:12:38;;;;;;;1999.90;999.90;;;16.20;99.50;;;;;;5093913;28;20037;-75
2023/07/23 00:15:05;;;;;;;1999.90;999.90;;;16.20;99.70;;;;;;5094412;28;20036;-75
2023/07/23 00:17:30;;;;;;;1999.90;999.90;;;16.20;99.90;;;;;;5094754;28;20033;-75
2023/07/23 00:19:56;;;;;;;1999.90;999.90;;;16.10;99.70;;;;;;5083072;28;20114;-74
2023/07/23 00:22:22;;;;;;;1999.90;999.90;;;16.20;99.90;;;;;;5088678;28;20034;-75
2023/07/23 00:24:56;;;;;;;1999.90;999.90;;;16.20;99.90;;;;;;5087551;28;20071;-75
2023/07/23 00:27:22;;;;;;;1999.90;999.90;;;16.00;99.90;;;;;;5053812;28;20033;-75
2023/07/23 00:29:56;;;;;;;1999.90;999.90;;;16.00;99.90;;;;;;5074244;28;20036;-75
2023/07/23 00:32:22;;;;;;;1999.90;999.90;;;16.00;99.90;;;;;;5093787;28;20032;-75
2023/07/23 00:34:47;;;;;;;1999.90;999.90;;;15.90;99.90;;;;;;5095820;28;20497;-75
2023/07/23 00:37:13;;;;;;;1999.90;999.90;;;15.90;99.90;;;;;;5086505;28;20028;-75
2023/07/23 00:39:39;;;;;;;1999.90;999.90;;;15.90;99.90;;;;;;5094581;28;20048;-75
2023/07/23 00:42:05;;;;;;;1999.90;999.90;;;15.90;99.90;;;;;;5094419;28;20033;-75
2023/07/23 00:44:30;;;;;;;1999.90;999.90;;;15.90;99.90;;;;;;5095646;28;20033;-75
2023/07/23 00:46:57;;;;;;;1999.90;999.90;;;15.80;99.90;;;;;;5093448;28;20036;-74
2023/07/23 00:49:23;;;;;;;1999.90;999.90;;;15.70;99.90;;;;;;5073697;28;20511;-74
2023/07/23 00:51:49;;;;;;;1999.90;999.90;;;15.70;99.90;;;;;;5102435;22;20048;-67
2023/07/23 00:54:15;;;;;;;1999.90;999.90;;;15.70;99.90;;;;;;5093285;28;20128;-67
2023/07/23 00:56:43;;;;;;;1999.90;999.90;;;15.80;99.90;;;;;;5095054;28;20477;-67
2023/07/23 00:59:09;;;;;;;1999.90;999.90;;;15.90;99.90;;;;;;5094762;28;20049;-67
2023/07/23 01:01:35;;;;;;;1999.90;999.90;;;15.90;99.90;;;;;;5083677;28;20044;-68
2023/07/23 01:04:00;;;;;;;1999.90;999.90;;;16.00;99.90;;;;;;5074630;28;20498;-67
2023/07/23 01:06:28;;;;;;;1999.90;999.90;;;16.10;99.40;;;;;;5074754;28;20033;-67
2023/07/23 01:08:55;;;;;;;1999.90;999.90;;;16.30;98.80;;;;;;5056459;28;20078;-67
2023/07/23 01:11:23;;;;;;;1999.90;999.90;;;16.40;98.60;;;;;;5073883;28;20064;-67
2023/07/23 01:13:51;;;;;;;1999.90;999.90;;;16.50;98.30;;;;;;5074448;28;20032;-68
2023/07/23 01:16:17;;;;;;;1999.90;999.90;;;16.50;98.30;;;;;;5074037;28;20485;-67
2023/07/23 01:18:43;;;;;;;1999.90;999.90;;;16.50;98.10;;;;;;5074668;28;20517;-67
2023/07/23 01:21:10;;;;;;;1999.90;999.90;;;16.60;98.00;;;;;;5074091;28;20052;-67
2023/07/23 01:23:36;;;;;;;1999.90;999.90;;;16.80;97.80;;;;;;5074463;28;20025;-67
2023/07/23 01:26:02;;;;;;;1999.90;999.90;;;16.80;97.60;;;;;;5073621;28;20434;-67
2023/07/23 01:28:28;;;;;;;1999.90;999.90;;;16.80;97.40;;;;;;5073940;28;20043;-67
2023/07/23 01:30:54;;;;;;;1999.90;999.90;;;16.80;97.30;;;;;;5074246;28;20041;-67
2023/07/23 01:33:21;;;;;;;1999.90;999.90;;;16.90;97.20;;;;;;5073817;28;20033;-67
2023/07/23 01:35:47;;;;;;;1999.90;999.90;;;16.90;97.20;;;;;;5074269;28;20041;-67
2023/07/23 01:38:13;;;;;;;1999.90;999.90;;;16.80;97.40;;;;;;5073894;28;20041;-67
2023/07/23 01:40:40;;;;;;;1999.90;999.90;;;16.80;97.10;;;;;;5073696;28;20041;-67
2023/07/23 01:43:06;;;;;;;1999.90;999.90;;;16.80;97.20;;;;;;5073326;28;20091;-67
2023/07/23 01:45:32;;;;;;;1999.90;999.90;;;16.80;97.30;;;;;;5074198;28;20070;-67
2023/07/23 01:47:58;;;;;;;1999.90;999.90;;;16.80;97.40;;;;;;5074403;28;20069;-67
2023/07/23 01:50:23;;;;;;;1999.90;999.90;;;16.80;97.30;;;;;;5055804;28;20032;-67
2023/07/23 01:52:49;;;;;;;1999.90;999.90;;;16.80;97.60;;;;;;5074583;28;20037;-66
2023/07/23 01:55:14;;;;;;;1999.90;999.90;;;16.80;97.30;;;;;;5077433;28;20064;-66
2023/07/23 01:57:40;;;;;;;1999.90;999.90;;;16.70;97.60;;;;;;5077545;28;20037;-66
2023/07/23 02:00:06;;;;;;;1999.90;999.90;;;16.60;97.80;;;;;;5077552;28;20477;-66
2023/07/23 02:02:31;;;;;;;1999.90;999.90;;;16.60;97.70;;;;;;5076831;28;20332;-66
2023/07/23 02:04:58;;;;;;;1999.90;999.90;;;16.70;98.10;;;;;;5077536;28;20064;-66
2023/07/23 02:07:23;;;;;;;1999.90;999.90;;;16.70;97.40;;;;;;5077027;28;20117;-66
2023/07/23 02:09:49;;;;;;;1999.90;999.90;;;16.80;97.40;;;;;;5059250;28;20099;-66
2023/07/23 02:12:15;;;;;;;1999.90;999.90;;;16.80;97.60;;;;;;5076804;28;20025;-66
2023/07/23 02:14:41;;;;;;;1999.90;999.90;;;16.90;97.20;;;;;;5059036;28;20083;-67
2023/07/23 02:17:06;;;;;;;1999.90;999.90;;;17.00;97.10;;;;;;5059002;28;20083;-67
2023/07/23 02:19:32;;;;;;;1999.90;999.90;;;17.10;96.90;;;;;;5058868;28;20051;-66
2023/07/23 02:21:58;;;;;;;1999.90;999.90;;;17.20;97.00;;;;;;5076619;28;20036;-66
2023/07/23 02:24:23;;;;;;;1999.90;999.90;;;17.30;96.90;;;;;;5077115;28;20033;-66
2023/07/23 02:26:49;;;;;;;1999.90;999.90;;;17.40;96.50;;;;;;5076820;28;20041;-66
2023/07/23 02:29:14;;;;;;;1999.90;999.90;;;17.50;96.40;;;;;;5077197;28;20041;-66
2023/07/23 02:31:40;;;;;;;1999.90;999.90;;;17.50;96.20;;;;;;5076377;28;20074;-66
2023/07/23 02:34:05;;;;;;;1999.90;999.90;;;17.50;96.00;;;;;;5077253;28;20120;-66
2023/07/23 02:36:31;;;;;;;1999.90;999.90;;;17.50;96.30;;;;;;5076885;28;20076;-66
2023/07/23 02:38:56;;;;;;;1999.90;999.90;;;17.40;95.90;;;;;;5076796;28;20044;-66
2023/07/23 02:41:23;;;;;;;1999.90;999.90;;;17.40;96.20;;;;;;5076070;28;20106;-66
2023/07/23 02:43:48;;;;;;;1999.90;999.90;;;17.40;96.30;;;;;;5076971;28;20076;-66
2023/07/23 02:46:14;;;;;;;1999.90;999.90;;;17.40;96.30;;;;;;5076844;28;20612;-66
2023/07/23 02:48:39;;;;;;;1999.90;999.90;;;17.40;96.10;;;;;;5076463;28;20082;-66
2023/07/23 02:51:05;;;;;;;1999.90;999.90;;;17.50;96.40;;;;;;5076652;28;20132;-66
2023/07/23 02:53:30;;;;;;;1999.90;999.90;;;17.40;96.00;;;;;;5076342;28;20124;-66
2023/07/23 02:55:56;;;;;;;1999.90;999.90;;;17.40;96.10;;;;;;5076758;28;20033;-66
2023/07/23 02:58:21;;;;;;;1999.90;999.90;;;17.30;96.10;;;;;;5076300;28;20059;-66
2023/07/23 03:00:47;;;;;;;1999.90;999.90;;;17.20;96.20;;;;;;5058231;28;20114;-66
2023/07/23 03:03:13;;;;;;;1999.90;999.90;;;17.10;96.30;;;;;;5076076;28;20029;-66
2023/07/23 03:05:42;;;;;;;1999.90;999.90;;;17.00;96.40;;;;;;5057726;28;20491;-66
2023/07/23 03:08:08;;;;;;;1999.90;999.90;;;17.00;96.40;;;;;;5058115;28;20171;-66
2023/07/23 03:10:33;;;;;;;1999.90;999.90;;;16.90;96.60;;;;;;5076368;28;20525;-66
2023/07/23 03:12:59;;;;;;;1999.90;999.90;;;16.80;97.00;;;;;;5057875;28;20033;-66
2023/07/23 03:15:24;;;;;;;1999.90;999.90;;;16.70;97.10;;;;;;5076430;28;20045;-66
2023/07/23 03:17:51;;;;;;;1999.90;999.90;;;16.80;97.10;;;;;;5076431;28;20033;-66
2023/07/23 03:20:17;;;;;;;1999.90;999.90;;;16.70;97.40;;;;;;5076483;28;20038;-66
2023/07/23 03:22:43;;;;;;;1999.90;999.90;;;16.70;97.30;;;;;;5075685;28;20040;-66
2023/07/23 03:25:09;;;;;;;1999.90;999.90;;;16.60;97.20;;;;;;5075834;28;20045;-66
2023/07/23 03:27:34;;;;;;;1999.90;999.90;;;16.60;97.60;;;;;;5076005;28;20039;-66
2023/07/23 03:30:00;;;;;;;1999.90;999.90;;;16.70;97.10;;;;;;5076223;28;20037;-66
2023/07/23 03:32:25;;;;;;;1999.90;999.90;;;16.70;97.30;;;;;;5075822;28;20033;-66
2023/07/23 03:34:51;;;;;;;1999.90;999.90;;;16.70;97.40;;;;;;5057792;28;20053;-66
2023/07/23 03:37:17;;;;;;;1999.90;999.90;;;16.70;97.20;;;;;;5075694;28;20108;-66
2023/07/23 03:39:42;;;;;;;1999.90;999.90;;;16.60;97.40;;;;;;5076078;28;20375;-66
2023/07/23 03:42:08;;;;;;;1999.90;999.90;;;16.50;98.00;;;;;;5075383;28;20029;-66
2023/07/23 03:44:33;;;;;;;1999.90;999.90;;;16.60;97.80;;;;;;5076190;28;20104;-66
2023/07/23 03:47:17;;;;;;;1999.90;999.90;;;16.40;98.10;;;;;;5076057;28;20033;-66
2023/07/23 03:49:43;;;;;;;1999.90;999.90;;;16.40;97.90;;;;;;5075345;28;20780;-66
2023/07/23 03:52:09;;;;;;;1999.90;999.90;;;16.30;97.90;;;;;;5074833;28;20103;-66
2023/07/23 03:54:35;;;;;;;1999.90;999.90;;;16.20;98.20;;;;;;5075609;28;20048;-66
2023/07/23 03:57:01;;;;;;;1999.90;999.90;;;16.20;98.30;;;;;;5075690;28;20044;-66
2023/07/23 03:59:34;;;;;;;1999.90;999.90;;;16.30;98.30;;;;;;5057064;28;20032;-66
2023/07/23 04:02:00;;;;;;;1999.90;999.90;;;16.30;98.10;;;;;;5075317;28;20065;-66
2023/07/23 04:04:25;;;;;;;1999.90;999.90;;;16.40;97.90;;;;;;5075087;28;20486;-66
2023/07/23 04:06:51;;;;;;;1999.90;999.90;;;16.50;98.40;;;;;;5075481;28;20391;-66
2023/07/23 04:09:18;;;;;;;1999.90;999.90;;;16.50;97.90;;;;;;5075666;28;20063;-66
2023/07/23 04:11:44;;;;;;;1999.90;999.90;;;16.50;97.70;;;;;;5074938;28;20036;-66
2023/07/23 04:14:09;;;;;;;1999.90;999.90;;;16.60;97.60;;;;;;5075439;28;20037;-66
2023/07/23 04:16:35;;;;;;;1999.90;999.90;;;16.50;97.70;;;;;;5074007;28;20115;-66
2023/07/23 04:19:00;;;;;;;1999.90;999.90;;;16.60;97.80;;;;;;5074905;28;20083;-66
2023/07/23 04:21:26;;;;;;;1999.90;999.90;;;16.70;97.80;;;;;;5074703;28;20068;-66
2023/07/23 04:23:55;;;;;;;1999.90;999.90;;;16.70;97.70;;;;;;5075246;28;20490;-66
2023/07/23 04:26:21;;;;;;;1999.90;999.90;;;16.70;97.60;;;;;;5074990;28;20060;-66
2023/07/23 04:28:47;;;;;;;1999.90;999.90;;;16.60;97.80;;;;;;5075199;28;20055;-66
2023/07/23 04:31:13;;;;;;;1999.90;999.90;;;16.70;98.10;;;;;;5074464;28;20490;-66
2023/07/23 04:33:39;;;;;;;1999.90;999.90;;;16.70;97.80;;;;;;5075094;28;20040;-66
2023/07/23 04:36:06;;;;;;;1999.90;999.90;;;16.60;98.10;;;;;;5075095;28;20033;-66
2023/07/23 04:38:32;;;;;;;1999.90;999.90;;;16.60;98.30;;;;;;5075196;28;20040;-66
2023/07/23 04:40:58;;;;;;;1999.90;999.90;;;16.60;98.10;;;;;;5074573;28;20044;-66
2023/07/23 04:43:23;;;;;;;1999.90;999.90;;;16.50;98.50;;;;;;5074653;28;20429;-66
2023/07/23 04:45:49;;;;;;;1999.90;999.90;;;16.50;98.80;;;;;;5075006;28;20033;-66
2023/07/23 04:48:16;;;;;;;1999.90;999.90;;;16.40;99.70;;;;;;5074706;28;20037;-66
2023/07/23 04:50:42;;;;;;;1999.90;999.90;;;16.40;99.70;;;;;;5074828;28;20402;-66
2023/07/23 04:53:08;;;;;;;1999.90;999.90;;;16.40;99.50;;;;;;5056102;28;20079;-66
2023/07/23 04:55:33;;;;;;;1999.90;999.90;;;16.40;99.60;;;;;;5074682;28;20040;-66
2023/07/23 04:57:59;;;;;;;1999.90;999.90;;;16.40;99.50;;;;;;5074483;28;20039;-66
2023/07/23 05:00:25;;;;;;;1999.90;999.90;;;16.40;99.70;;;;;;5074569;28;20132;-66
2023/07/23 05:02:50;;;;;;;1999.90;999.90;;;16.40;99.50;;;;;;5073532;28;20037;-66
2023/07/23 05:05:16;;;;;;;1999.90;999.90;;;16.50;99.40;;;;;;5056278;28;20061;-66
2023/07/23 05:07:41;;;;;;;1999.90;999.90;;;16.60;98.70;;;;;;5074747;28;20029;-66
2023/07/23 05:10:07;;;;;;;1999.90;999.90;;;16.80;98.30;;;;;;5074668;28;20043;-66
2023/07/23 05:12:33;;;;;;;1999.90;999.90;;;17.10;97.80;;;;;;5074074;28;20434;-66
2023/07/23 05:15:11;;;;;;;1999.90;999.90;;;17.30;97.50;;;;;;5073998;28;20044;-66
2023/07/23 05:17:37;;;;;;;1999.90;999.90;;;17.50;96.90;;;;;;5074276;28;20033;-66
2023/07/23 05:20:06;;;;;;;1999.90;999.90;;;17.60;96.90;;;;;;5074502;28;20033;-66
2023/07/23 05:22:38;;;;;;;1999.90;999.90;;;17.70;97.10;;;;;;5073988;28;20041;-66
2023/07/23 05:25:05;;;;;;;1999.90;999.90;;;18.00;96.00;;;;;;5074616;28;20087;-66
2023/07/23 05:27:30;;;;;;;1999.90;999.90;;;18.00;96.50;;;;;;5073909;28;20044;-66
2023/07/23 05:29:56;;;;;;;1999.90;999.90;;;18.10;95.80;;;;;;5073904;28;20048;-66
2023/07/23 05:32:22;;;;;;;1999.90;999.90;;;18.10;95.80;;;;;;5073875;28;20084;-66
2023/07/23 05:34:47;;;;;;;1999.90;999.90;;;18.20;96.30;;;;;;5074099;28;20060;-67
2023/07/23 05:37:13;;;;;;;1999.90;999.90;;;18.20;96.00;;;;;;5074420;28;20036;-66
2023/07/23 05:39:38;;;;;;;1999.90;999.90;;;18.20;95.90;;;;;;5074059;28;20045;-66
2023/07/23 05:42:04;;;;;;;1999.90;999.90;;;18.30;95.20;;;;;;5073508;28;20033;-66
2023/07/23 05:44:31;;;;;;;1999.90;999.90;;;18.40;95.10;;;;;;5073744;28;20048;-66
2023/07/23 05:46:57;;;;;;;1999.90;999.90;;;18.40;95.30;;;;;;5074303;28;20086;-66
2023/07/23 05:49:24;;;;;;;1999.90;999.90;;;18.50;95.30;;;;;;5074298;28;20040;-66
2023/07/23 05:51:50;;;;;;;1999.90;999.90;;;18.50;95.30;;;;;;5054887;28;20048;-66
2023/07/23 05:54:15;;;;;;;1999.90;999.90;;;18.60;95.20;;;;;;5074107;28;20044;-66
2023/07/23 05:56:41;;;;;;;1999.90;999.90;;;18.60;95.30;;;;;;5074070;28;20086;-66
2023/07/23 05:59:06;;;;;;;1999.90;999.90;;;18.80;94.70;;;;;;5073911;28;20049;-66
2023/07/23 06:01:32;;;;;;;1999.90;999.90;;;19.00;94.30;;;;;;5073506;28;20044;-66
2023/07/23 06:03:57;;;;;;;1999.90;999.90;;;19.20;93.80;;;;;;5073762;28;20095;-66
2023/07/23 06:06:23;;;;;;;1999.90;999.90;;;19.40;93.60;;;;;;5073213;28;20044;-66
2023/07/23 06:08:49;;;;;;;1999.90;999.90;;;19.70;93.50;;;;;;5073747;28;20041;-66
2023/07/23 06:11:15;;;;;;;1999.90;999.90;;;20.00;92.80;;;;;;5073470;28;20433;-66
2023/07/23 06:13:40;;;;;;;1999.90;999.90;;;20.30;91.80;;;;;;5073870;28;20060;-66
2023/07/23 06:16:06;;;;;;;1999.90;999.90;;;20.60;92.20;;;;;;5073536;28;20372;-66
2023/07/23 06:18:35;;;;;;;1999.90;999.90;;;21.00;91.60;;;;;;5054899;28;20482;-66
2023/07/23 06:21:01;;;;;;;1999.90;999.90;;;21.30;90.50;;;;;;5055332;28;20045;-66
2023/07/23 06:23:26;;;;;;;1999.90;999.90;;;21.50;89.40;;;;;;5073650;28;20033;-66
2023/07/23 06:25:55;;;;;;;1999.90;999.90;;;21.50;90.00;;;;;;5073728;28;20041;-66
2023/07/23 06:28:21;;;;;;;1999.90;999.90;;;21.50;88.50;;;;;;5073934;28;20044;-66
2023/07/23 06:30:49;;;;;;;1999.90;999.90;;;21.50;88.90;;;;;;5073258;28;20041;-66
2023/07/23 06:33:15;;;;;;;1999.90;999.90;;;21.50;88.90;;;;;;5073287;28;20402;-66
2023/07/23 06:35:43;;;;;;;1999.90;999.90;;;21.90;88.20;;;;;;5067064;28;20041;-66
2023/07/23 06:38:08;;;;;;;1999.90;999.90;;;21.90;87.60;;;;;;5046867;28;20478;-66
2023/07/23 06:40:34;;;;;;;1999.90;999.90;;;22.00;88.10;;;;;;5059083;28;20045;-66
2023/07/23 06:42:59;;;;;;;1999.90;999.90;;;21.90;88.50;;;;;;5076612;28;20482;-66
2023/07/23 06:45:25;;;;;;;1999.90;999.90;;;21.80;88.80;;;;;;5074046;28;20091;-67
2023/07/23 06:47:50;;;;;;;1999.90;999.90;;;21.70;88.60;;;;;;5058232;28;20160;-66
2023/07/23 06:50:17;;;;;;;1999.90;999.90;;;21.60;88.80;;;;;;5060524;28;20048;-68
2023/07/23 06:52:43;;;;;;;1999.90;999.90;;;21.50;90.00;;;;;;5076664;28;20037;-67
2023/07/23 06:55:09;;;;;;;1999.90;999.90;;;21.40;89.40;;;;;;5076959;28;20033;-65
2023/07/23 06:58:21;;;;;;;1999.90;999.90;;;21.40;88.90;;;;;;5132183;27;20877;-72
2023/07/23 07:00:46;;;;;;;1999.90;999.90;;;21.60;90.00;;;;;;5132853;27;20070;-66
2023/07/23 07:03:12;;;;;;;1999.90;999.90;;;21.90;90.00;;;;;;5130751;27;20067;-67
2023/07/23 07:05:37;;;;;;;1999.90;999.90;;;22.30;88.30;;;;;;5126594;27;20076;-66
2023/07/23 07:08:03;;;;;;;1999.90;999.90;;;22.50;87.40;;;;;;5119451;27;20036;-66
2023/07/23 07:10:29;;;;;;;1999.90;999.90;;;22.50;87.10;;;;;;5116363;27;20044;-68
2023/07/23 07:12:54;;;;;;;1999.90;999.90;;;22.50;86.60;;;;;;5110738;27;20409;-70
2023/07/23 07:15:20;;;;;;;1999.90;999.90;;;22.60;87.60;;;;;;5113473;27;20039;-70
2023/07/23 07:17:45;;;;;;;1999.90;999.90;;;22.70;87.20;;;;;;5112422;27;20560;-70
2023/07/23 07:20:11;;;;;;;1999.90;999.90;;;22.80;88.60;;;;;;5112285;28;20547;-68
2023/07/23 07:22:37;;;;;;;1999.90;999.90;;;22.80;87.20;;;;;;5114077;27;20095;-69
2023/07/23 07:25:02;;;;;;;1999.90;999.90;;;22.70;86.60;;;;;;5132331;27;20084;-66
2023/07/23 07:27:28;;;;;;;1999.90;999.90;;;22.80;87.00;;;;;;5119677;27;20089;-67
2023/07/23 07:29:54;;;;;;;1999.90;999.90;;;22.90;86.10;;;;;;5128493;27;20509;-66
2023/07/23 07:32:19;;;;;;;1999.90;999.90;;;23.10;86.00;;;;;;5126812;27;20501;-66
2023/07/23 07:34:45;;;;;;;1999.90;999.90;;;23.10;83.90;;;;;;5111790;27;20048;-70
2023/07/23 07:37:10;;;;;;;1999.90;999.90;;;23.40;84.40;;;;;;5117477;27;20436;-69
2023/07/23 07:39:36;;;;;;;1999.90;999.90;;;23.80;82.50;;;;;;5131374;27;20040;-69
2023/07/23 07:42:02;;;;;;;1999.90;999.90;;;24.20;81.40;;;;;;5131279;27;20509;-72
2023/07/23 07:44:28;;;;;;;1999.90;999.90;;;24.80;79.40;;;;;;5131932;27;20035;-65
2023/07/23 07:46:54;;;;;;;1999.90;999.90;;;25.40;77.80;;;;;;5130868;27;20444;-70
2023/07/23 07:49:20;;;;;;;1999.90;999.90;;;25.90;77.20;;;;;;5122213;27;20036;-71
2023/07/23 07:51:47;;;;;;;1999.90;999.90;;;26.30;75.10;;;;;;5120465;27;20035;-67
2023/07/23 07:54:13;;;;;;;1999.90;999.90;;;26.80;72.60;;;;;;5131633;27;20111;-65
2023/07/23 07:56:39;;;;;;;1999.90;999.90;;;27.10;72.20;;;;;;5123908;27;20035;-70
2023/07/23 07:59:06;;;;;;;1999.90;999.90;;;27.20;71.50;;;;;;5117946;27;20032;-73
2023/07/23 08:01:31;;;;;;;1999.90;999.90;;;27.30;70.00;;;;;;5121854;27;20492;-69
2023/07/23 08:03:57;;;;;;;1999.90;999.90;;;27.10;68.90;;;;;;5132122;27;20090;-75
2023/07/23 08:06:24;;;;;;;1999.90;999.90;;;26.90;71.40;;;;;;5122411;27;20521;-73
2023/07/23 08:08:51;;;;;;;1999.90;999.90;;;26.70;69.70;;;;;;5139941;27;20560;-73
2023/07/23 08:11:17;;;;;;;1999.90;999.90;;;26.80;70.30;;;;;;5112035;27;20078;-74
2023/07/23 08:13:43;;;;;;;1999.90;999.90;;;26.80;69.50;;;;;;5114769;27;20055;-76
2023/07/23 08:16:12;;;;;;;1999.90;999.90;;;26.90;69.40;;;;;;5127912;27;20067;-75
2023/07/23 08:18:38;;;;;;;1999.90;999.90;;;26.80;69.30;;;;;;5107528;27;20031;-67
2023/07/23 08:21:04;;;;;;;1999.90;999.90;;;26.70;72.00;;;;;;5108629;27;20027;-76
2023/07/23 08:23:30;;;;;;;1999.90;999.90;;;26.80;69.00;;;;;;5123181;27;20118;-69
2023/07/23 08:25:57;;;;;;;1999.90;999.90;;;26.70;70.60;;;;;;5121194;27;20059;-70
2023/07/23 08:28:28;;;;;;;1999.90;999.90;;;27.00;70.30;;;;;;5127574;27;20039;-68
2023/07/23 08:30:56;;;;;;;1999.90;999.90;;;27.10;69.20;;;;;;5118409;27;20145;-67
2023/07/23 08:33:25;;;;;;;1999.90;999.90;;;27.20;69.30;;;;;;5117180;27;20037;-66
2023/07/23 08:35:50;;;;;;;1999.90;999.90;;;27.20;71.50;;;;;;5117893;27;20040;-67
2023/07/23 08:38:16;;;;;;;1999.90;999.90;;;27.30;68.80;;;;;;5109261;27;20044;-66
2023/07/23 08:40:44;;;;;;;1999.90;999.90;;;27.40;69.20;;;;;;5110690;28;20482;-66
2023/07/23 08:43:26;;;;;;;1999.90;999.90;;;27.40;69.50;;;;;;5115519;27;20043;-66
2023/07/23 08:45:55;;;;;;;1999.90;999.90;;;27.40;69.00;;;;;;5115961;27;20504;-66
2023/07/23 08:48:20;;;;;;;1999.90;999.90;;;27.60;69.40;;;;;;5112013;27;20041;-66
2023/07/23 08:50:48;;;;;;;1999.90;999.90;;;27.70;67.80;;;;;;5123885;27;20467;-65
2023/07/23 08:53:15;;;;;;;1999.90;999.90;;;27.60;67.50;;;;;;5111593;27;20037;-66
2023/07/23 08:55:45;;;;;;;1999.90;999.90;;;27.40;69.30;;;;;;5111568;27;20498;-67
2023/07/23 08:58:19;;;;;;;1999.90;999.90;;;27.20;68.10;;;;;;5114035;27;20126;-66
2023/07/23 09:00:46;;;;;;;1999.90;999.90;;;26.90;68.00;;;;;;5119601;27;20028;-66
2023/07/23 09:03:20;;;;;;;1999.90;999.90;;;26.70;69.40;;;;;;5117302;27;20040;-67
2023/07/23 09:05:45;;;;;;;1999.90;999.90;;;26.70;69.60;;;;;;5115072;27;20071;-69
2023/07/23 09:08:11;;;;;;;1999.90;999.90;;;26.60;69.40;;;;;;5108730;27;20115;-70
2023/07/23 09:10:36;;;;;;;1999.90;999.90;;;26.80;70.30;;;;;;5108995;27;20405;-69
2023/07/23 09:13:10;;;;;;;1999.90;999.90;;;26.90;69.20;;;;;;5118866;27;20126;-67
2023/07/23 09:15:36;;;;;;;1999.90;999.90;;;27.00;69.00;;;;;;5107090;27;20085;-67
2023/07/23 09:18:01;;;;;;;1999.90;999.90;;;27.30;68.90;;;;;;5116362;27;20044;-66
2023/07/23 09:20:27;;;;;;;1999.90;999.90;;;27.30;68.30;;;;;;5117292;27;20486;-66
2023/07/23 09:22:52;;;;;;;1999.90;999.90;;;27.30;68.30;;;;;;5115344;27;20040;-67
2023/07/23 09:25:18;;;;;;;1999.90;999.90;;;27.30;68.40;;;;;;5102470;27;20047;-67
2023/07/23 09:27:44;;;;;;;1999.90;999.90;;;27.10;67.10;;;;;;5112858;27;20120;-67
2023/07/23 09:30:19;;;;;;;1999.90;999.90;;;26.80;68.90;;;;;;5127833;27;20485;-73
2023/07/23 09:33:00;;;;;;;1999.90;999.90;;;26.80;69.10;;;;;;5108174;27;20037;-68
2023/07/23 09:35:30;;;;;;;1999.90;999.90;;;26.80;69.10;;;;;;5114217;27;20036;-67
2023/07/23 09:37:59;;;;;;;1999.90;999.90;;;26.70;70.10;;;;;;5107714;28;20036;-67
2023/07/23 09:40:39;;;;;;;1999.90;999.90;;;26.70;69.50;;;;;;5119605;27;20479;-67
2023/07/23 09:43:05;;;;;;;1999.90;999.90;;;26.60;70.00;;;;;;5131588;27;20524;-67
2023/07/23 09:45:36;;;;;;;1999.90;999.90;;;26.70;69.60;;;;;;5113585;27;20045;-67
2023/07/23 09:48:02;;;;;;;1999.90;999.90;;;26.60;69.10;;;;;;5113567;28;20032;-67
2023/07/23 09:50:29;;;;;;;1999.90;999.90;;;26.30;70.80;;;;;;5116150;28;20028;-67
2023/07/23 09:52:55;;;;;;;1999.90;999.90;;;26.40;69.90;;;;;;5111507;27;20068;-66
2023/07/23 09:55:21;;;;;;;1999.90;999.90;;;26.60;69.60;;;;;;5103827;27;20032;-66
2023/07/23 09:57:50;;;;;;;1999.90;999.90;;;26.90;70.50;;;;;;5111049;27;20040;-66
2023/07/23 10:00:17;;;;;;;1999.90;999.90;;;27.30;67.50;;;;;;5105921;27;20039;-66
2023/07/23 10:02:45;;;;;;;1999.90;999.90;;;27.40;67.60;;;;;;5125762;27;20047;-67
2023/07/23 10:05:12;;;;;;;1999.90;999.90;;;27.70;67.30;;;;;;5136182;27;20032;-67
2023/07/23 10:07:39;;;;;;;1999.90;999.90;;;27.90;69.30;;;;;;5112205;27;20043;-68
2023/07/23 10:10:08;;;;;;;1999.90;999.90;;;27.90;67.10;;;;;;5116069;27;20486;-67
2023/07/23 10:12:34;;;;;;;1999.90;999.90;;;28.00;68.60;;;;;;5119889;27;20039;-68
2023/07/23 10:15:00;;;;;;;1999.90;999.90;;;28.20;64.50;;;;;;5121711;27;20489;-67
2023/07/23 10:17:28;;;;;;;1999.90;999.90;;;28.50;65.10;;;;;;5114647;28;20036;-68
2023/07/23 10:19:55;;;;;;;1999.90;999.90;;;28.70;63.80;;;;;;5114586;27;20034;-66
2023/07/23 10:22:24;;;;;;;1999.90;999.90;;;28.20;62.40;;;;;;5109800;27;20044;-73
2023/07/23 10:24:54;;;;;;;1999.90;999.90;;;27.40;63.80;;;;;;5119511;27;20123;-67
2023/07/23 10:27:19;;;;;;;1999.90;999.90;;;27.00;64.80;;;;;;5117898;27;20170;-67
2023/07/23 10:30:15;;;;;;;1999.90;999.90;;;26.70;65.80;;;;;;5121289;27;20534;-70
2023/07/23 10:32:41;;;;;;;1999.90;999.90;;;26.50;68.50;;;;;;5108019;27;20035;-74
2023/07/23 10:35:06;;;;;;;1999.90;999.90;;;26.50;66.40;;;;;;5112225;27;20035;-75
2023/07/23 10:37:32;;;;;;;1999.90;999.90;;;26.40;69.00;;;;;;5115967;27;20044;-73
2023/07/23 10:40:00;;;;;;;1999.90;999.90;;;26.50;68.10;;;;;;5131876;27;20047;-68
2023/07/23 10:42:33;;;;;;;1999.90;999.90;;;26.60;67.50;;;;;;5120525;27;20401;-68
2023/07/23 10:45:17;;;;;;;1999.90;999.90;;;27.40;68.50;;;;;;5104421;27;20843;-68
2023/07/23 10:47:55;;;;;;;1999.90;999.90;;;28.30;65.20;;;;;;5101296;27;20039;-75
2023/07/23 10:50:21;;;;;;;1999.90;999.90;;;28.60;64.40;;;;;;5108744;27;20032;-67
2023/07/23 10:52:58;;;;;;;1999.90;999.90;;;29.00;65.20;;;;;;5108155;27;20039;-69
2023/07/23 10:55:50;;;;;;;1999.90;999.90;;;29.30;63.30;;;;;;5119683;27;20039;-68
2023/07/23 10:58:21;;;;;;;1999.90;999.90;;;29.20;62.70;;;;;;5109234;27;20052;-68
2023/07/23 11:00:52;;;;;;;1999.90;999.90;;;29.00;63.10;;;;;;5106202;27;20098;-67
2023/07/23 11:03:19;;;;;;;1999.90;999.90;;;29.30;61.10;;;;;;5105503;27;20045;-68
2023/07/23 11:05:45;;;;;;;1999.90;999.90;;;29.70;63.00;;;;;;5130620;27;20073;-68
2023/07/23 11:08:15;;;;;;;1999.90;999.90;;;30.60;59.60;;;;;;5103743;27;20064;-67
2023/07/23 11:10:57;;;;;;;1999.90;999.90;;;30.80;58.90;;;;;;5105128;27;20037;-67
2023/07/23 11:13:25;;;;;;;1999.90;999.90;;;30.90;59.70;;;;;;5114673;27;20056;-67
2023/07/23 11:15:51;;;;;;;1999.90;999.90;;;30.90;58.80;;;;;;5113846;28;20498;-68
2023/07/23 11:18:18;;;;;;;1999.90;999.90;;;30.80;58.30;;;;;;5112079;27;20047;-73
2023/07/23 11:20:50;;;;;;;1999.90;999.90;;;30.40;59.10;;;;;;5100517;27;20040;-68
2023/07/23 11:23:17;;;;;;;1999.90;999.90;;;30.20;59.00;;;;;;5108098;27;20393;-72
2023/07/23 11:25:43;;;;;;;1999.90;999.90;;;30.10;59.10;;;;;;5112402;27;20059;-67
2023/07/23 11:28:10;;;;;;;1999.90;999.90;;;30.50;59.40;;;;;;5113922;27;20044;-67
2023/07/23 11:30:36;;;;;;;1999.90;999.90;;;30.80;58.40;;;;;;5103162;27;20032;-67
2023/07/23 11:33:03;;;;;;;1999.90;999.90;;;30.80;59.40;;;;;;5111376;27;20044;-70
2023/07/23 11:35:29;;;;;;;1999.90;999.90;;;31.00;59.90;;;;;;5116053;27;20115;-66
2023/07/23 11:37:54;;;;;;;1999.90;999.90;;;30.90;59.30;;;;;;5111032;27;20047;-66
2023/07/23 11:40:22;;;;;;;1999.90;999.90;;;30.80;59.70;;;;;;5120314;27;20086;-73
2023/07/23 11:42:47;;;;;;;1999.90;999.90;;;30.60;58.30;;;;;;5120499;27;20074;-67
2023/07/23 11:45:13;;;;;;;1999.90;999.90;;;30.40;59.90;;;;;;5125642;27;20040;-66
2023/07/23 11:47:53;;;;;;;1999.90;999.90;;;30.40;60.20;;;;;;5115820;27;20032;-68
2023/07/23 11:50:20;;;;;;;1999.90;999.90;;;30.20;59.10;;;;;;5098194;27;20851;-66
2023/07/23 11:52:47;;;;;;;1999.90;999.90;;;29.80;60.30;;;;;;5116892;28;20105;-66
2023/07/23 11:55:19;;;;;;;1999.90;999.90;;;30.30;60.20;;;;;;5124461;27;20040;-66
2023/07/23 11:57:50;;;;;;;1999.90;999.90;;;31.00;59.30;;;;;;5122771;27;20040;-66